PAL127 KJFK-RPLL
Flight info
| Callsign | PAL127 |
|---|---|
| Flight time | N/A |
| Altitude | 33000 |
| Route | GREKI DCT JUDDS DCT ALB DCT MT DCT KLIPS DCT RODBO DCT IKMAN/M085F330 DCT EPMAN DCT 70N054W 75N042W 79N021W 80N000W/N0493F330 80N020E 80N030E DCT PIREL/K0924F330 N611 DOSON R705 BRT G490 SERNA/K0917S1005 Y345 UDA Z156 NIXAL G343 TMR B458 DADGA W37 OMBEB R473 WYN W18 TAMOT/N0513F330 B330 BIGEX DCT POVAM DCT NOPER V642 NOMAN A461 AVMUP W16 TADEL TADEL5R |
| Aircraft | A35K/H-SDE2E3GHIJ3J4J5LM1ORWXY/LB1D1 |
Departure
| Time | 2026-05-04 04:36 |
|---|---|
| Airport | John F. Kennedy International Airport (KJFK) |
Arrival
| Time | N/A |
|---|---|
| Airport | Ninoy Aquino International Airport (RPLL) |
| Time | Latitude | Longitude | Altitude | Speed | Heading |
|---|---|---|---|---|---|
| 2026-05-04 04:00 | 40.64242 | -73.79275 | 26 ft | 0 kts | 151° |
| 2026-05-04 04:23 | 40.64244 | -73.79276 | 26 ft | 2 kts | 149° |
| 2026-05-04 04:24 | 40.64245 | -73.79275 | 26 ft | 4 kts | 160° |
| 2026-05-04 04:24 | 40.64261 | -73.79276 | 26 ft | 3 kts | 171° |
| 2026-05-04 04:24 | 40.64282 | -73.79283 | 26 ft | 4 kts | 161° |
| 2026-05-04 04:24 | 40.64307 | -73.79294 | 26 ft | 4 kts | 173° |
| 2026-05-04 04:25 | 40.64325 | -73.79290 | 26 ft | 1 kts | 224° |
| 2026-05-04 04:25 | 40.64328 | -73.79286 | 26 ft | 0 kts | 224° |
| 2026-05-04 04:28 | 40.64299 | -73.79323 | 26 ft | 10 kts | 223° |
| 2026-05-04 04:28 | 40.64249 | -73.79385 | 26 ft | 10 kts | 226° |
| 2026-05-04 04:29 | 40.64212 | -73.79464 | 26 ft | 11 kts | 247° |
| 2026-05-04 04:29 | 40.64177 | -73.79570 | 26 ft | 14 kts | 234° |
| 2026-05-04 04:29 | 40.64081 | -73.79599 | 26 ft | 16 kts | 167° |
| 2026-05-04 04:29 | 40.63986 | -73.79507 | 26 ft | 19 kts | 127° |
| 2026-05-04 04:30 | 40.63912 | -73.79351 | 26 ft | 22 kts | 121° |
| 2026-05-04 04:30 | 40.63833 | -73.79178 | 26 ft | 22 kts | 121° |
| 2026-05-04 04:30 | 40.63756 | -73.79011 | 26 ft | 21 kts | 121° |
| 2026-05-04 04:30 | 40.63682 | -73.78851 | 28 ft | 20 kts | 121° |
| 2026-05-04 04:31 | 40.63610 | -73.78696 | 28 ft | 20 kts | 121° |
| 2026-05-04 04:31 | 40.63540 | -73.78545 | 28 ft | 19 kts | 120° |
| 2026-05-04 04:31 | 40.63478 | -73.78392 | 27 ft | 19 kts | 120° |
| 2026-05-04 04:31 | 40.63411 | -73.78244 | 27 ft | 19 kts | 122° |
| 2026-05-04 04:32 | 40.63347 | -73.78097 | 27 ft | 18 kts | 113° |
| 2026-05-04 04:32 | 40.63334 | -73.77936 | 27 ft | 18 kts | 81° |
| 2026-05-04 04:32 | 40.63303 | -73.77794 | 29 ft | 16 kts | 118° |
| 2026-05-04 04:32 | 40.63252 | -73.77672 | 29 ft | 15 kts | 120° |
| 2026-05-04 04:33 | 40.63194 | -73.77551 | 28 ft | 16 kts | 123° |
| 2026-05-04 04:33 | 40.63134 | -73.77426 | 27 ft | 16 kts | 121° |
| 2026-05-04 04:33 | 40.63075 | -73.77298 | 27 ft | 16 kts | 121° |
| 2026-05-04 04:33 | 40.63017 | -73.77169 | 27 ft | 16 kts | 122° |
| 2026-05-04 04:34 | 40.62942 | -73.77103 | 27 ft | 11 kts | 195° |
| 2026-05-04 04:34 | 40.62873 | -73.77143 | 27 ft | 10 kts | 209° |
| 2026-05-04 04:34 | 40.62824 | -73.77204 | 28 ft | 9 kts | 256° |
| 2026-05-04 04:34 | 40.62844 | -73.77273 | 28 ft | 8 kts | 298° |
| 2026-05-04 04:35 | 40.62931 | -73.77469 | 30 ft | 50 kts | 301° |
| 2026-05-04 04:35 | 40.63196 | -73.78053 | 29 ft | 99 kts | 301° |
| 2026-05-04 04:35 | 40.63631 | -73.78995 | 29 ft | 141 kts | 301° |
| 2026-05-04 04:35 | 40.64206 | -73.80241 | 63 ft | 173 kts | 300° |
| 2026-05-04 04:36 | 40.64814 | -73.81603 | 436 ft | 172 kts | 298° |
| 2026-05-04 04:36 | 40.65366 | -73.82976 | 899 ft | 168 kts | 296° |
| 2026-05-04 04:36 | 40.65555 | -73.84278 | 1038 ft | 177 kts | 257° |
| 2026-05-04 04:36 | 40.64963 | -73.85730 | 1222 ft | 188 kts | 235° |
| 2026-05-04 04:37 | 40.66442 | -73.89625 | 1372 ft | 235 kts | 351° |
| 2026-05-04 04:37 | 40.67983 | -73.89422 | 1511 ft | 249 kts | 19° |
| 2026-05-04 04:38 | 40.69531 | -73.88444 | 1838 ft | 258 kts | 31° |
| 2026-05-04 04:38 | 40.71037 | -73.87123 | 2314 ft | 261 kts | 35° |
| 2026-05-04 04:38 | 40.72529 | -73.85738 | 2796 ft | 264 kts | 34° |
| 2026-05-04 04:38 | 40.74068 | -73.84380 | 3274 ft | 267 kts | 32° |
| 2026-05-04 04:39 | 40.75656 | -73.83088 | 3746 ft | 269 kts | 30° |
| 2026-05-04 04:39 | 40.77285 | -73.81854 | 4210 ft | 272 kts | 29° |
| 2026-05-04 04:39 | 40.78950 | -73.80653 | 4669 ft | 274 kts | 28° |
| 2026-05-04 04:39 | 40.80639 | -73.79465 | 5033 ft | 276 kts | 27° |
| 2026-05-04 04:40 | 40.82343 | -73.78278 | 5473 ft | 278 kts | 27° |
| 2026-05-04 04:40 | 40.84061 | -73.77081 | 5940 ft | 280 kts | 27° |
| 2026-05-04 04:40 | 40.85778 | -73.75879 | 6385 ft | 282 kts | 28° |
| 2026-05-04 04:40 | 40.87478 | -73.74684 | 6825 ft | 284 kts | 28° |
| 2026-05-04 04:41 | 40.89227 | -73.73450 | 7270 ft | 286 kts | 28° |
| 2026-05-04 04:41 | 40.90987 | -73.72205 | 7712 ft | 288 kts | 28° |
| 2026-05-04 04:41 | 40.92762 | -73.70947 | 8154 ft | 291 kts | 28° |
| 2026-05-04 04:41 | 40.94552 | -73.69677 | 8592 ft | 293 kts | 28° |
| 2026-05-04 04:42 | 40.96356 | -73.68397 | 9018 ft | 295 kts | 28° |
| 2026-05-04 04:42 | 40.98167 | -73.67111 | 9432 ft | 297 kts | 28° |
| 2026-05-04 04:42 | 40.99995 | -73.65813 | 9837 ft | 299 kts | 28° |
| 2026-05-04 04:42 | 41.01841 | -73.64502 | 10179 ft | 304 kts | 28° |
| 2026-05-04 04:43 | 41.03741 | -73.63150 | 10351 ft | 315 kts | 28° |
| 2026-05-04 04:43 | 41.05697 | -73.61759 | 10511 ft | 325 kts | 28° |
| 2026-05-04 04:43 | 41.07724 | -73.60316 | 10668 ft | 335 kts | 28° |
| 2026-05-04 04:43 | 41.09804 | -73.58835 | 10820 ft | 345 kts | 28° |
| 2026-05-04 04:44 | 41.11945 | -73.57309 | 10970 ft | 354 kts | 28° |
| 2026-05-04 04:44 | 41.14135 | -73.55746 | 11114 ft | 362 kts | 28° |
| 2026-05-04 04:44 | 41.16383 | -73.54141 | 11251 ft | 370 kts | 28° |
| 2026-05-04 04:44 | 41.18672 | -73.52505 | 11380 ft | 377 kts | 28° |
| 2026-05-04 04:45 | 41.21000 | -73.50840 | 11501 ft | 384 kts | 28° |
| 2026-05-04 04:45 | 41.23371 | -73.49142 | 11613 ft | 390 kts | 28° |
| 2026-05-04 04:45 | 41.25778 | -73.47418 | 11717 ft | 396 kts | 28° |
| 2026-05-04 04:47 | 41.40693 | -73.36699 | 12614 ft | 412 kts | 28° |
| 2026-05-04 04:47 | 41.43216 | -73.34881 | 12787 ft | 413 kts | 28° |
| 2026-05-04 04:47 | 41.45748 | -73.33050 | 12956 ft | 414 kts | 29° |
| 2026-05-04 04:47 | 41.48128 | -73.30892 | 13107 ft | 416 kts | 39° |
| 2026-05-04 04:48 | 41.50322 | -73.28371 | 13274 ft | 417 kts | 42° |
| 2026-05-04 04:49 | 41.58845 | -73.17773 | 13860 ft | 421 kts | 34° |
| 2026-05-04 04:49 | 41.61412 | -73.15895 | 13991 ft | 422 kts | 22° |
| 2026-05-04 04:49 | 41.64216 | -73.14763 | 14117 ft | 423 kts | 10° |
| 2026-05-04 04:49 | 41.67142 | -73.14481 | 14238 ft | 423 kts | 357° |
| 2026-05-04 04:50 | 41.70042 | -73.15079 | 14357 ft | 423 kts | 344° |
| 2026-05-04 04:50 | 41.72827 | -73.16382 | 14488 ft | 424 kts | 338° |
| 2026-05-04 04:50 | 41.75538 | -73.17944 | 14609 ft | 425 kts | 335° |
| 2026-05-04 04:50 | 41.78215 | -73.19627 | 14730 ft | 426 kts | 334° |
| 2026-05-04 04:51 | 41.80848 | -73.21327 | 14846 ft | 426 kts | 334° |
| 2026-05-04 04:51 | 41.83526 | -73.23055 | 14966 ft | 427 kts | 334° |
| 2026-05-04 04:51 | 41.86210 | -73.24766 | 15082 ft | 428 kts | 334° |
| 2026-05-04 04:51 | 41.88913 | -73.26467 | 15190 ft | 429 kts | 334° |
| 2026-05-04 04:52 | 41.91620 | -73.28154 | 15296 ft | 430 kts | 335° |
| 2026-05-04 04:52 | 41.94340 | -73.29841 | 15400 ft | 431 kts | 335° |
| 2026-05-04 04:52 | 41.97061 | -73.31524 | 15504 ft | 431 kts | 335° |